Time;durP1;ratioP1;P1;durP2;ratioP2;P2;SDS_P1;SDS_P2;PMS_P1;PMS_P2;Temp;Humidity;BMP_temperature;BMP_pressure;BME280_temperature;BME280_humidity;BME280_pressure;Samples;Min_cycle;Max_cycle;Signal;HPM_P1;HPM_P2
2022/12/26 00:01:46;;;;;;;16.50;7.70;;;;;;;11.98;59.85;100248.88;4310712;33;20144;-90
2022/12/26 00:04:12;;;;;;;13.88;7.35;;;;;;;11.96;59.84;100253.28;4298300;33;20139;-89
2022/12/26 00:06:37;;;;;;;14.50;7.22;;;;;;;11.87;59.83;100256.19;4308959;33;20155;-89
2022/12/26 00:09:03;;;;;;;15.75;6.28;;;;;;;11.92;59.84;100254.28;4322858;33;20100;-89
2022/12/26 00:11:29;;;;;;;16.67;6.47;;;;;;;11.83;59.84;100251.06;4298962;33;20111;-89
2022/12/26 00:13:56;;;;;;;19.77;7.15;;;;;;;11.88;59.83;100250.06;4320985;33;20175;-90
2022/12/26 00:16:21;;;;;;;17.35;6.72;;;;;;;11.83;59.84;100251.94;4311094;33;20147;-91
2022/12/26 00:18:47;;;;;;;18.27;7.32;;;;;;;11.85;59.84;100252.75;4299073;33;20120;-90
2022/12/26 00:21:13;;;;;;;16.23;6.78;;;;;;;11.83;59.84;100258.88;4320490;33;20745;-90
2022/12/26 00:23:39;;;;;;;18.35;7.20;;;;;;;11.81;59.83;100261.53;4310782;33;20163;-90
2022/12/26 00:26:06;;;;;;;15.27;7.10;;;;;;;11.85;59.84;100247.53;4308265;33;20086;-91
2022/12/26 00:28:31;;;;;;;13.38;7.32;;;;;;;11.70;59.82;100247.94;4310638;33;20096;-90
2022/12/26 00:30:57;;;;;;;14.93;7.28;;;;;;;11.53;59.82;100235.38;4321881;33;20417;-90
2022/12/26 00:33:22;;;;;;;14.18;6.95;;;;;;;11.68;59.83;100247.13;4320431;33;20175;-91
2022/12/26 00:35:47;;;;;;;16.15;7.57;;;;;;;11.61;59.82;100243.84;4310720;33;20543;-91
2022/12/26 00:38:13;;;;;;;13.85;6.68;;;;;;;11.54;59.82;100244.91;4298604;33;20426;-91
2022/12/26 00:40:42;;;;;;;16.05;7.30;;;;;;;11.50;59.81;100250.25;4322684;33;20960;-90
2022/12/26 00:43:10;;;;;;;19.10;8.00;;;;;;;11.37;59.82;100242.78;4299414;33;20175;-89
2022/12/26 00:45:36;;;;;;;14.80;7.55;;;;;;;11.32;59.81;100255.06;4322279;33;20393;-91
2022/12/26 00:48:01;;;;;;;14.68;7.65;;;;;;;11.32;59.81;100255.06;4300588;33;20135;-91
2022/12/26 00:50:27;;;;;;;13.62;7.05;;;;;;;11.53;59.82;100252.78;4299161;33;20143;-91
2022/12/26 00:52:52;;;;;;;17.95;7.85;;;;;;;11.56;59.82;100252.69;4310761;33;20115;-90
2022/12/26 00:55:18;;;;;;;15.77;7.90;;;;;;;11.53;59.83;100253.63;4311643;33;20249;-91
2022/12/26 00:57:43;;;;;;;16.50;8.00;;;;;;;11.55;59.82;100253.56;4298553;33;20095;-92
2022/12/26 01:00:09;;;;;;;17.85;8.32;;;;;;;11.35;59.81;100259.34;4296138;33;20167;-91
2022/12/26 01:02:38;;;;;;;15.27;7.90;;;;;;;11.48;59.82;100259.88;4310630;33;20103;-92
2022/12/26 01:05:04;;;;;;;21.65;8.38;;;;;;;11.51;59.82;100257.16;4298966;33;20088;-91
2022/12/26 01:07:35;;;;;;;21.27;8.40;;;;;;;11.34;59.81;100253.25;4313967;33;20152;-92
2022/12/26 01:10:01;;;;;;;19.40;10.35;;;;;;;11.16;59.80;100245.97;4298281;33;20080;-92
2022/12/26 01:12:26;;;;;;;20.33;9.15;;;;;;;11.21;59.80;100238.88;4327689;33;20139;-90
2022/12/26 01:14:54;;;;;;;19.80;8.80;;;;;;;11.24;59.80;100244.00;4298012;33;20621;-92
2022/12/26 01:17:19;;;;;;;22.25;10.35;;;;;;;11.26;59.80;100239.59;4305574;33;20087;-92
2022/12/26 01:19:45;;;;;;;19.58;9.75;;;;;;;11.08;59.80;100243.53;4336750;33;20418;-90
2022/12/26 01:22:10;;;;;;;20.10;10.40;;;;;;;11.05;59.79;100251.44;4327292;33;20454;-87
2022/12/26 01:24:36;;;;;;;19.90;9.93;;;;;;;10.99;59.79;100243.78;4324024;33;20479;-89
2022/12/26 01:27:01;;;;;;;23.75;10.02;;;;;;;10.91;59.78;100234.47;4334089;33;20194;-90
2022/12/26 01:29:27;;;;;;;21.20;9.48;;;;;;;11.05;59.79;100241.03;4322274;33;20132;-89
2022/12/26 01:31:52;;;;;;;17.45;8.80;;;;;;;11.17;59.80;100232.03;4319942;33;20151;-89
2022/12/26 01:34:17;;;;;;;24.12;10.45;;;;;;;11.19;59.80;100230.25;4309769;33;20139;-90
2022/12/26 01:36:43;;;;;;;20.70;10.63;;;;;;;11.10;59.80;100216.59;4319889;33;20141;-90
2022/12/26 01:39:08;;;;;;;19.60;9.93;;;;;;;11.11;59.79;100223.50;4328361;33;20176;-90
2022/12/26 01:41:34;;;;;;;18.92;9.70;;;;;;;11.04;59.79;100223.69;4309962;33;20439;-89
2022/12/26 01:44:04;;;;;;;20.88;10.85;;;;;;;11.14;59.79;100216.50;4298120;33;20373;-90
2022/12/26 01:46:29;;;;;;;18.17;9.85;;;;;;;11.21;59.79;100220.63;4321869;33;20096;-89
2022/12/26 01:48:58;;;;;;;24.97;11.60;;;;;;;10.96;59.79;100215.22;4334208;33;20441;-90
2022/12/26 01:51:23;;;;;;;22.02;10.32;;;;;;;10.89;59.78;100218.88;4313368;33;20217;-90
2022/12/26 01:53:50;;;;;;;23.30;11.45;;;;;;;10.75;59.77;100216.63;4321308;33;20095;-89
2022/12/26 01:56:19;;;;;;;20.17;11.02;;;;;;;10.73;59.77;100212.34;4309511;33;20111;-90
2022/12/26 01:58:50;;;;;;;22.75;10.68;;;;;;;10.79;59.78;100209.59;4309711;33;20104;-89
2022/12/26 02:01:15;;;;;;;20.95;10.60;;;;;;;10.82;59.78;100208.66;4322077;33;20122;-89
2022/12/26 02:07:14;;;;;;;;;;;;;;;;;;;;;
2022/12/26 02:09:39;;;;;;;21.42;12.50;;;;;;;10.66;59.77;100203.00;4322842;33;35665;-90
2022/12/26 02:12:24;;;;;;;25.60;11.65;;;;;;;10.53;59.76;100205.03;4309042;33;20142;-91
2022/12/26 02:14:49;;;;;;;21.80;11.85;;;;;;;10.61;59.77;100199.63;4296983;33;20095;-92
2022/12/26 02:17:15;;;;;;;24.58;12.63;;;;;;;10.37;59.76;100204.53;4296480;33;20127;-91
2022/12/26 02:20:10;;;;;;;23.10;11.90;;;;;;;10.48;59.76;100199.09;4318081;33;20145;-92
2022/12/26 02:22:41;;;;;;;25.25;11.95;;;;;;;10.32;59.76;100198.59;4328855;33;20115;-91
2022/12/26 02:25:30;;;;;;;28.48;13.07;;;;;;;10.07;59.73;100198.28;4321572;33;20151;-92
2022/12/26 02:27:59;;;;;;;25.65;13.23;;;;;;;10.19;59.75;100199.75;4312047;33;20099;-91
2022/12/26 02:30:29;;;;;;;26.65;14.15;;;;;;;9.96;59.73;100212.44;4333949;33;20112;-91
2022/12/26 02:33:19;;;;;;;29.87;14.07;;;;;;;9.94;59.73;100206.41;4333868;33;20112;-91
2022/12/26 02:35:50;;;;;;;34.13;14.45;;;;;;;10.07;59.74;100200.03;4333723;33;20162;-90
2022/12/26 02:38:37;;;;;;;27.98;14.23;;;;;;;10.17;59.75;100196.31;4321339;33;20147;-90
2022/12/26 02:41:07;;;;;;;35.58;14.75;;;;;;;10.05;59.74;100189.66;4300201;33;20108;-90
2022/12/26 02:43:59;;;;;;;28.23;14.20;;;;;;;10.11;59.74;100183.44;4320230;33;20131;-90
2022/12/26 02:49:28;;;;;;;27.73;14.95;;;;;;;10.21;59.74;100178.94;4333725;33;20126;-90
2022/12/26 03:15:09;;;;;;;26.58;14.75;;;;;;;9.78;59.72;100175.53;4329624;33;20175;-89
2022/12/26 03:17:38;;;;;;;33.60;15.90;;;;;;;9.61;59.71;100176.78;4320116;33;20115;-90
2022/12/26 03:20:05;;;;;;;34.33;16.37;;;;;;;9.71;59.71;100160.97;4311151;33;20122;-90
2022/12/26 03:22:33;;;;;;;31.52;16.27;;;;;;;9.65;59.72;100162.81;4309317;33;20540;-90
2022/12/26 03:27:43;;;;;;;30.00;14.95;;;;;;;9.72;59.71;100164.41;4315072;33;20119;-91
2022/12/26 03:32:56;;;;;;;31.33;16.12;;;;;;;9.64;59.71;100169.75;4316512;33;20079;-91
2022/12/26 03:35:24;;;;;;;29.42;15.25;;;;;;;9.60;59.71;100169.88;4313383;33;20150;-91
2022/12/26 03:37:55;;;;;;;32.67;15.98;;;;;;;9.50;59.71;100175.28;4323119;33;20194;-91
2022/12/26 04:44:16;;;;;;;34.15;16.25;;;;;;;8.67;59.66;100208.88;4310153;33;20158;-90
2022/12/26 04:46:42;;;;;;;36.78;16.37;;;;;;;8.66;59.66;100208.88;4316408;33;20108;-90
2022/12/26 04:51:55;;;;;;;36.92;15.93;;;;;;;8.77;59.67;100202.66;4322484;33;20126;-89
2022/12/26 04:54:20;;;;;;;31.17;15.88;;;;;;;8.82;59.67;100185.25;4322436;33;20099;-88
2022/12/26 04:56:46;;;;;;;32.08;15.82;;;;;;;8.87;59.66;100193.81;4295766;33;20183;-89
2022/12/26 04:59:11;;;;;;;35.00;17.75;;;;;;;8.92;59.67;100199.75;4327610;33;20118;-89
2022/12/26 05:09:52;;;;;;;36.70;17.50;;;;;;;8.80;59.66;100194.81;4314573;33;20143;-89
2022/12/26 05:12:18;;;;;;;31.37;15.80;;;;;;;9.01;59.68;100192.72;4322571;33;20103;-89
2022/12/26 05:14:43;;;;;;;34.05;17.02;;;;;;;8.99;59.68;100204.84;4330798;33;20103;-89
2022/12/26 05:29:20;;;;;;;31.33;16.33;;;;;;;8.73;59.66;100190.59;4311969;33;20493;-89
2022/12/26 05:31:45;;;;;;;32.15;15.65;;;;;;;8.82;59.67;100194.78;4309511;33;20437;-89
2022/12/26 05:34:14;;;;;;;34.42;17.23;;;;;;;8.77;59.67;100197.47;4311403;33;20130;-89
2022/12/26 05:36:43;;;;;;;37.15;17.92;;;;;;;8.71;59.66;100194.94;4314912;33;20098;-88
2022/12/26 05:39:08;;;;;;;33.17;17.27;;;;;;;8.56;59.65;100196.09;4321925;33;20115;-90
2022/12/26 05:41:35;;;;;;;39.03;18.50;;;;;;;8.63;59.66;100194.22;4321968;33;20120;-90
2022/12/26 05:44:00;;;;;;;37.30;17.95;;;;;;;8.65;59.66;100187.28;4312364;33;20064;-90
2022/12/26 05:46:26;;;;;;;36.63;17.92;;;;;;;8.68;59.66;100183.75;4314798;33;20141;-90
2022/12/26 05:48:51;;;;;;;36.75;17.52;;;;;;;8.77;59.67;100186.22;4321168;33;20127;-90
2022/12/26 05:51:16;;;;;;;38.95;17.77;;;;;;;8.72;59.66;100181.09;4297785;33;20107;-90
2022/12/26 05:53:42;;;;;;;37.25;19.40;;;;;;;8.64;59.66;100188.16;4297613;33;20175;-92
2022/12/26 05:56:12;;;;;;;37.15;17.87;;;;;;;8.42;59.64;100195.44;4322231;33;20402;-91
2022/12/26 05:58:37;;;;;;;39.72;19.23;;;;;;;8.39;59.65;100192.03;4312486;33;20116;-89
2022/12/26 06:01:13;;;;;;;36.08;17.55;;;;;;;8.35;59.64;100198.16;4322171;33;20091;-89
2022/12/26 06:03:39;;;;;;;36.55;17.58;;;;;;;8.38;59.65;100196.37;4321966;33;20095;-89
2022/12/26 06:06:05;;;;;;;35.08;17.65;;;;;;;8.30;59.64;100196.47;4321482;33;20120;-88
2022/12/26 06:08:30;;;;;;;33.95;16.87;;;;;;;8.35;59.63;100192.97;4307125;33;20147;-88
2022/12/26 06:10:56;;;;;;;34.90;18.02;;;;;;;8.13;59.63;100201.06;4297336;33;20377;-89
2022/12/26 06:13:32;;;;;;;34.60;17.40;;;;;;;8.18;59.63;100196.66;4325943;33;20095;-88
2022/12/26 06:15:57;;;;;;;35.25;16.87;;;;;;;8.21;59.63;100191.41;4302610;33;20108;-90
2022/12/26 06:18:23;;;;;;;35.20;16.98;;;;;;;8.10;59.62;100187.28;4316490;33;20258;-91
2022/12/26 06:20:48;;;;;;;31.27;15.93;;;;;;;8.20;59.63;100186.25;4293491;33;20118;-90
2022/12/26 06:23:14;;;;;;;32.60;16.17;;;;;;;8.23;59.63;100181.00;4321232;33;20153;-91
2022/12/26 06:25:39;;;;;;;34.53;16.95;;;;;;;8.15;59.63;100181.12;4320839;33;20497;-88
2022/12/26 06:28:04;;;;;;;39.55;17.65;;;;;;;8.09;59.63;100175.19;4296876;33;20552;-89
2022/12/26 06:30:30;;;;;;;44.88;19.80;;;;;;;8.18;59.63;100178.50;4306937;33;20087;-89
2022/12/26 06:32:55;;;;;;;37.50;18.45;;;;;;;8.27;59.64;100177.47;4309278;33;20099;-89
2022/12/26 06:35:21;;;;;;;33.00;17.55;;;;;;;8.20;59.63;100176.72;4320866;33;20155;-90
2022/12/26 06:37:46;;;;;;;38.30;19.05;;;;;;;8.26;59.64;100178.38;4318503;33;20775;-90
2022/12/26 06:40:12;;;;;;;38.92;17.67;;;;;;;8.13;59.63;100188.09;4296941;33;20106;-90
2022/12/26 06:42:37;;;;;;;39.83;18.10;;;;;;;8.36;59.63;100186.91;4315974;33;20143;-90
2022/12/26 06:45:03;;;;;;;38.33;19.70;;;;;;;8.46;59.65;100181.53;4293595;33;20141;-91
2022/12/26 06:47:28;;;;;;;35.47;17.87;;;;;;;8.37;59.63;100173.91;4323218;33;20104;-90
2022/12/26 06:49:54;;;;;;;42.45;18.95;;;;;;;7.94;59.62;100184.91;4322837;33;20107;-90
2022/12/26 06:52:19;;;;;;;36.25;18.15;;;;;;;7.90;59.61;100192.75;4298974;33;20480;-89
2022/12/26 06:54:45;;;;;;;40.72;19.55;;;;;;;8.01;59.63;100183.06;4298411;33;20554;-89
2022/12/26 06:57:10;;;;;;;37.78;19.45;;;;;;;7.96;59.62;100190.91;4298731;33;20339;-89
2022/12/26 06:59:35;;;;;;;31.12;17.37;;;;;;;7.67;59.60;100188.72;4301676;33;20488;-89
2022/12/26 07:02:01;;;;;;;36.13;18.23;;;;;;;7.78;59.61;100183.37;4323195;33;20134;-89
2022/12/26 07:04:26;;;;;;;39.03;17.98;;;;;;;7.71;59.61;100184.34;4313452;33;20088;-89
2022/12/26 07:06:52;;;;;;;33.10;17.15;;;;;;;7.75;59.61;100185.16;4328566;33;20265;-88
2022/12/26 07:09:17;;;;;;;40.53;19.52;;;;;;;7.90;59.61;100187.56;4304067;33;20113;-89
2022/12/26 07:11:48;;;;;;;35.92;18.55;;;;;;;7.94;59.62;100192.69;4299176;33;20409;-89
2022/12/26 07:14:13;;;;;;;36.83;18.52;;;;;;;7.76;59.62;100203.28;4317103;33;20615;-89
2022/12/26 07:16:40;;;;;;;65.30;18.83;;;;;;;8.01;59.63;100209.84;4308290;33;20131;-88
2022/12/26 07:19:05;;;;;;;45.53;15.48;;;;;;;7.97;59.62;100208.19;4313478;33;20115;-89
2022/12/26 07:21:31;;;;;;;65.35;17.08;;;;;;;8.02;59.62;100208.97;4304089;33;20139;-90
2022/12/26 07:23:56;;;;;;;44.65;17.17;;;;;;;7.91;59.61;100215.19;4314319;33;20104;-90
2022/12/26 07:26:23;;;;;;;65.00;16.73;;;;;;;7.94;59.62;100216.00;4298000;33;20175;-89
2022/12/26 07:28:52;;;;;;;52.65;16.75;;;;;;;8.07;59.62;100208.06;4311004;33;20088;-90
2022/12/26 07:31:18;;;;;;;76.50;16.70;;;;;;;7.97;59.62;100218.56;4317313;33;20068;-90
2022/12/26 07:33:51;;;;;;;40.63;14.43;;;;;;;7.91;59.61;100218.62;4295100;33;20112;-88
2022/12/26 07:36:17;;;;;;;56.00;15.57;;;;;;;8.03;59.62;100209.81;4311566;33;20134;-89
2022/12/26 07:38:42;;;;;;;105.95;15.60;;;;;;;8.11;59.63;100214.91;4322583;33;20115;-90
2022/12/26 07:43:52;;;;;;;57.20;15.35;;;;;;;8.12;59.63;100224.41;4335825;33;20487;-91
2022/12/26 07:46:17;;;;;;;61.60;14.60;;;;;;;8.06;59.62;100222.78;4322737;33;20100;-90
2022/12/26 07:48:43;;;;;;;59.63;14.85;;;;;;;8.01;59.62;100212.44;4310618;33;20096;-91
2022/12/26 07:51:08;;;;;;;47.13;16.25;;;;;;;8.07;59.62;100215.84;4323243;33;20092;-90
2022/12/26 07:53:34;;;;;;;51.78;15.18;;;;;;;8.19;59.63;100226.03;4313041;33;20463;-90
2022/12/26 07:55:59;;;;;;;53.60;15.75;;;;;;;8.21;59.63;100226.84;4317161;33;20179;-89
2022/12/26 07:58:26;;;;;;;27.75;14.13;;;;;;;8.19;59.63;100224.28;4320334;33;20121;-90
2022/12/26 08:00:51;;;;;;;39.78;14.35;;;;;;;8.19;59.63;100231.22;4322545;33;20729;-90
2022/12/26 08:03:17;;;;;;;41.47;14.30;;;;;;;8.48;59.64;100231.66;4309753;33;20112;-90
2022/12/26 08:05:48;;;;;;;42.08;15.63;;;;;;;8.32;59.64;100241.41;4323939;33;20187;-90
2022/12/26 08:08:15;;;;;;;42.88;18.85;;;;;;;8.43;59.64;100225.69;4300257;33;20095;-90
2022/12/26 08:10:40;;;;;;;32.03;15.35;;;;;;;8.43;59.64;100230.87;4329042;33;20059;-90
2022/12/26 08:13:05;;;;;;;33.22;15.77;;;;;;;8.42;59.64;100221.38;4310988;33;20516;-90
2022/12/26 08:15:31;;;;;;;31.55;16.62;;;;;;;8.54;59.65;100228.13;4310795;33;20386;-90
2022/12/26 08:17:56;;;;;;;32.70;15.73;;;;;;;8.85;59.67;100220.69;4298528;33;20119;-90
2022/12/26 08:20:22;;;;;;;28.55;14.70;;;;;;;8.83;59.67;100227.63;4298997;33;20095;-90
2022/12/26 08:22:47;;;;;;;37.60;16.48;;;;;;;8.88;59.67;100231.00;4313027;33;20107;-88
2022/12/26 08:25:12;;;;;;;32.50;16.30;;;;;;;8.64;59.66;100240.06;4322595;33;20191;-88
2022/12/26 08:27:40;;;;;;;30.90;15.93;;;;;;;8.56;59.65;100239.34;4322623;33;20099;-90
2022/12/26 08:30:07;;;;;;;36.88;15.18;;;;;;;8.61;59.66;100240.09;4317195;33;20532;-90
2022/12/26 08:32:32;;;;;;;34.40;16.12;;;;;;;8.69;59.66;100240.84;4320216;33;20180;-90
2022/12/26 08:34:57;;;;;;;36.38;17.17;;;;;;;8.82;59.67;100237.16;4328655;33;20154;-89
2022/12/26 08:37:23;;;;;;;34.45;17.17;;;;;;;8.67;59.66;100242.59;4322961;33;20191;-90
2022/12/26 08:39:51;;;;;;;34.05;17.08;;;;;;;8.95;59.67;100240.37;4322655;33;20395;-90
2022/12/26 08:42:17;;;;;;;31.35;16.30;;;;;;;8.95;59.67;100236.94;4309869;33;20109;-91
2022/12/26 08:44:42;;;;;;;38.40;20.45;;;;;;;9.19;59.69;100242.53;4310918;33;20122;-90
2022/12/26 08:47:08;;;;;;;38.47;21.10;;;;;;;9.38;59.70;100242.19;4318627;33;20154;-90
2022/12/26 08:49:33;;;;;;;37.38;19.35;;;;;;;9.35;59.70;100247.47;4306251;33;20139;-90
2022/12/26 08:51:58;;;;;;;39.28;19.37;;;;;;;9.40;59.70;100233.50;4312211;33;20115;-90
2022/12/26 08:54:24;;;;;;;37.00;20.08;;;;;;;9.66;59.72;100232.09;4298045;33;20120;-90
2022/12/26 08:56:49;;;;;;;45.78;22.27;;;;;;;9.69;59.71;100235.50;4295885;33;20091;-90
2022/12/26 08:59:15;;;;;;;37.40;20.60;;;;;;;9.74;59.72;100231.09;4316086;33;20155;-90
2022/12/26 09:01:40;;;;;;;44.97;27.37;;;;;;;9.87;59.73;100236.87;4298294;33;20402;-90
2022/12/26 09:04:06;;;;;;;37.15;21.05;;;;;;;9.85;59.72;100238.66;4297978;33;20103;-90
2022/12/26 09:06:35;;;;;;;36.85;20.05;;;;;;;10.04;59.74;100239.09;4297788;33;20117;-88
2022/12/26 09:09:00;;;;;;;35.08;22.15;;;;;;;10.15;59.74;100237.09;4328787;33;20831;-90
2022/12/26 09:11:26;;;;;;;43.87;21.55;;;;;;;10.25;59.75;100241.25;4309326;33;20124;-90
2022/12/26 09:13:52;;;;;;;37.47;21.83;;;;;;;10.30;59.75;100238.56;4315378;33;20135;-90
2022/12/26 09:16:19;;;;;;;39.70;21.17;;;;;;;10.63;59.77;100245.56;4298054;33;20091;-90
2022/12/26 09:18:45;;;;;;;47.62;22.17;;;;;;;10.50;59.76;100254.56;4322220;33;20170;-88
2022/12/26 09:21:12;;;;;;;44.80;23.02;;;;;;;10.47;59.76;100254.63;4299126;33;20115;-90
2022/12/26 09:23:39;;;;;;;56.70;34.53;;;;;;;10.53;59.76;100244.06;4327993;33;20100;-87
2022/12/26 09:26:12;;;;;;;47.20;23.77;;;;;;;10.66;59.77;100250.72;4321873;33;20052;-88
2022/12/26 09:28:37;;;;;;;36.45;21.83;;;;;;;10.64;59.77;100252.47;4309976;33;20743;-90
2022/12/26 09:31:07;;;;;;;40.45;19.30;;;;;;;10.74;59.77;100253.97;4297548;33;20136;-88
2022/12/26 09:33:35;;;;;;;41.33;22.20;;;;;;;10.69;59.77;100254.97;4292407;33;191354;-90
2022/12/26 09:36:03;;;;;;;38.95;21.27;;;;;;;10.99;59.79;100256.81;4310175;33;20150;-89
2022/12/26 09:38:29;;;;;;;38.83;21.30;;;;;;;11.09;59.80;100254.81;4334245;33;20104;-89
2022/12/26 09:41:01;;;;;;;40.95;22.13;;;;;;;11.32;59.81;100247.25;4297245;33;20100;-89
2022/12/26 09:43:29;;;;;;;40.40;22.10;;;;;;;11.45;59.80;100236.50;4309528;33;20111;-90
2022/12/26 09:46:06;;;;;;;39.22;21.62;;;;;;;11.50;59.81;100234.59;4308752;33;20155;-89
2022/12/26 09:48:39;;;;;;;41.92;22.05;;;;;;;11.58;59.82;100249.12;4298309;33;20417;-90
2022/12/26 09:51:06;;;;;;;41.03;22.23;;;;;;;11.80;59.83;100245.94;4321835;33;20104;-89
2022/12/26 09:53:34;;;;;;;45.78;23.30;;;;;;;11.68;59.83;100244.53;4297903;33;20126;-89
2022/12/26 09:56:06;;;;;;;40.50;22.10;;;;;;;11.82;59.83;100237.16;4313831;33;20096;-88
2022/12/26 09:58:50;;;;;;;39.08;21.48;;;;;;;11.95;59.84;100235.06;4296185;33;20114;-88
2022/12/26 10:01:26;;;;;;;44.45;22.98;;;;;;;11.90;59.83;100247.41;4321892;33;20739;-91
2022/12/26 10:03:55;;;;;;;42.03;21.33;;;;;;;11.81;59.83;100237.22;4310075;33;20068;-89
2022/12/26 10:06:33;;;;;;;41.10;22.00;;;;;;;11.96;59.84;100239.38;4312431;33;20110;-90
2022/12/26 10:09:49;;;;;;;42.88;22.27;;;;;;;11.99;59.85;100228.84;4321763;33;20154;-90
2022/12/26 10:12:21;;;;;;;39.47;20.80;;;;;;;12.06;59.85;100219.06;4295026;33;20172;-89
2022/12/26 10:14:52;;;;;;;45.72;22.83;;;;;;;12.13;59.84;100223.22;4320843;33;20103;-89
2022/12/26 10:17:33;;;;;;;42.00;20.70;;;;;;;12.52;59.87;100221.94;4317248;33;20399;-86
2022/12/26 10:20:22;;;;;;;35.25;18.75;;;;;;;12.42;59.86;100217.94;4309077;33;20118;-88
2022/12/26 10:23:03;;;;;;;32.78;19.17;;;;;;;12.44;59.87;100218.75;4334262;33;20166;-89
2022/12/26 10:25:54;;;;;;;29.50;16.77;;;;;;;12.69;59.88;100212.72;4334078;33;20112;-87
2022/12/26 10:28:27;;;;;;;29.33;16.80;;;;;;;12.75;59.89;100212.50;4332744;33;20802;-88
2022/12/26 10:30:53;;;;;;;33.83;17.70;;;;;;;12.79;59.88;100203.69;4316183;33;20092;-88
2022/12/26 10:33:26;;;;;;;33.08;18.67;;;;;;;12.91;59.89;100200.63;4309551;33;20183;-88
2022/12/26 10:35:51;;;;;;;33.72;18.27;;;;;;;12.91;59.89;100185.81;4298624;33;20472;-90
2022/12/26 10:38:36;;;;;;;33.47;19.95;;;;;;;12.93;59.89;100183.16;4322880;33;20135;-90
2022/12/26 10:41:07;;;;;;;34.85;18.12;;;;;;;13.04;59.89;100190.63;4314029;33;20444;-88
2022/12/26 10:43:33;;;;;;;33.45;17.42;;;;;;;13.17;59.90;100182.31;4313733;33;20072;-87
2022/12/26 10:46:11;;;;;;;32.53;17.55;;;;;;;13.25;59.91;100183.78;4322706;33;20099;-89
2022/12/26 10:48:37;;;;;;;32.17;18.17;;;;;;;13.31;59.91;100181.84;4298513;33;20435;-88
2022/12/26 10:51:02;;;;;;;32.35;18.23;;;;;;;13.11;59.90;100179.91;4297966;33;20123;-88
2022/12/26 10:53:28;;;;;;;31.62;16.62;;;;;;;13.35;59.91;100159.91;4322375;33;20134;-89
2022/12/26 10:55:53;;;;;;;35.97;18.77;;;;;;;13.42;59.92;100161.38;4322426;33;20104;-88
2022/12/26 10:58:27;;;;;;;34.75;18.33;;;;;;;13.59;59.93;100157.28;4320570;33;20155;-90
2022/12/26 11:00:53;;;;;;;32.58;18.52;;;;;;;13.61;59.92;100151.06;4298847;33;20513;-90
2022/12/26 11:03:19;;;;;;;33.53;18.62;;;;;;;13.71;59.93;100152.41;4297952;33;20171;-89
2022/12/26 11:05:46;;;;;;;36.95;19.27;;;;;;;13.66;59.93;100140.44;4310654;33;20104;-89
2022/12/26 11:08:19;;;;;;;37.10;20.65;;;;;;;13.65;59.94;100141.34;4310731;33;20158;-89
2022/12/26 11:10:59;;;;;;;35.80;21.02;;;;;;;13.78;59.94;100134.72;4322496;33;20167;-89
2022/12/26 11:13:24;;;;;;;;;;;;;;;13.71;59.93;100135.87;4299703;33;20116;-89
2022/12/26 11:15:53;;;;;;;38.60;19.43;;;;;;;13.89;59.95;100127.31;4331267;33;19998;-89
2022/12/26 11:18:29;;;;;;;37.85;21.23;;;;;;;13.96;59.95;100120.94;4307472;33;20178;-89
2022/12/26 11:20:54;;;;;;;39.50;19.52;;;;;;;13.86;59.94;100116.09;4322719;33;20163;-89
2022/12/26 11:23:25;;;;;;;36.92;20.37;;;;;;;13.76;59.93;100126.09;4322516;33;20170;-90
2022/12/26 11:25:53;;;;;;;29.90;17.65;;;;;;;13.96;59.95;100115.69;4325901;33;20514;-90
2022/12/26 11:28:23;;;;;;;31.08;17.58;;;;;;;14.13;59.96;100115.84;4322925;33;20099;-89
2022/12/26 11:30:49;;;;;;;33.28;18.17;;;;;;;14.30;59.96;100114.31;4298280;33;20122;-89
2022/12/26 11:33:42;;;;;;;31.55;17.35;;;;;;;14.38;59.97;100122.69;4298089;33;20150;-90
2022/12/26 11:36:16;;;;;;;31.87;16.92;;;;;;;14.41;59.98;100125.19;4322568;33;20104;-89
2022/12/26 11:38:53;;;;;;;22.60;13.27;;;;;;;14.16;59.96;100127.97;4318972;33;20454;-89
2022/12/26 11:41:30;;;;;;;20.15;10.43;;;;;;;14.28;59.97;100129.25;4298997;33;20100;-90
2022/12/26 11:44:08;;;;;;;13.20;7.75;;;;;;;14.46;59.97;100127.66;4334436;33;20712;-89
2022/12/26 11:46:37;;;;;;;12.70;7.80;;;;;;;14.67;59.99;100114.50;4320843;33;20134;-87
2022/12/26 11:49:03;;;;;;;17.37;8.93;;;;;;;14.58;59.98;100114.87;4299961;33;20100;-88
2022/12/26 11:51:48;;;;;;;17.50;9.38;;;;;;;14.70;59.98;100121.38;4297682;33;20186;-89
2022/12/26 11:54:30;;;;;;;36.10;18.98;;;;;;;14.87;60.00;100118.87;4309721;33;20135;-87
2022/12/26 11:57:22;;;;;;;45.92;21.02;;;;;;;14.97;60.00;100101.84;4323821;33;20133;-88
2022/12/26 11:59:48;;;;;;;42.10;20.85;;;;;;;15.14;60.01;100119.44;4333610;33;20117;-88
2022/12/26 12:02:18;;;;;;;40.45;19.48;;;;;;;15.10;60.01;100117.00;4334082;33;20203;-87
2022/12/26 12:04:45;;;;;;;41.72;20.10;;;;;;;14.90;60.00;100116.09;4306861;33;20151;-86
2022/12/26 12:07:35;;;;;;;44.08;21.17;;;;;;;14.87;60.00;100120.62;4321596;33;20115;-88
2022/12/26 12:10:32;;;;;;;44.08;22.23;;;;;;;14.85;59.99;100117.22;4321920;33;20095;-89
2022/12/26 12:13:07;;;;;;;47.00;26.37;;;;;;;15.06;60.01;100108.44;4317865;33;20083;-88
2022/12/26 12:15:42;;;;;;;46.40;27.17;;;;;;;14.94;59.99;100111.59;4334760;33;20068;-89
2022/12/26 12:18:19;;;;;;;46.55;25.05;;;;;;;14.97;60.00;100100.97;4319462;33;20134;-89
2022/12/26 12:20:56;;;;;;;39.72;21.67;;;;;;;14.78;60.00;100095.69;4329137;33;20126;-88
2022/12/26 12:23:45;;;;;;;38.08;20.33;;;;;;;14.78;60.00;100103.56;4335264;33;20126;-89
2022/12/26 12:26:23;;;;;;;31.60;17.25;;;;;;;14.83;59.99;100104.19;4311927;33;20220;-89
2022/12/26 12:29:11;;;;;;;33.40;17.73;;;;;;;15.10;60.01;100101.28;4321776;33;20413;-89
2022/12/26 12:32:05;;;;;;;27.52;15.50;;;;;;;15.14;60.01;100102.81;4304231;33;20476;-88
2022/12/26 12:34:43;;;;;;;27.48;15.38;;;;;;;15.16;60.02;100096.62;4325663;33;20099;-89
2022/12/26 12:37:57;;;;;;;27.40;14.90;;;;;;;15.13;60.01;100095.88;4322045;33;20126;-89
2022/12/26 12:40:47;;;;;;;23.95;13.55;;;;;;;15.03;60.01;100100.69;4317606;33;20787;-89
2022/12/26 12:43:20;;;;;;;25.73;13.07;;;;;;;15.00;60.00;100106.94;4312924;33;20449;-89
2022/12/26 12:47:01;;;;;;;;;;;;;;;;;;;;;
2022/12/26 12:49:34;;;;;;;24.00;13.77;;;;;;;15.01;60.00;100097.28;4253224;33;35553;-89
2022/12/26 12:52:18;;;;;;;23.95;14.20;;;;;;;15.14;60.01;100084.47;4317282;33;20075;-89
2022/12/26 12:54:58;;;;;;;24.95;12.65;;;;;;;14.92;60.00;100087.22;4345323;33;20087;-90
2022/12/26 12:57:39;;;;;;;21.73;13.02;;;;;;;14.98;60.00;100086.94;4313690;33;20114;-89
2022/12/26 13:00:22;;;;;;;22.10;11.75;;;;;;;14.90;60.00;100089.88;4334263;33;20108;-87
2022/12/26 13:03:10;;;;;;;20.27;13.10;;;;;;;15.06;60.01;100084.81;4298029;33;20111;-88
2022/12/26 13:06:07;;;;;;;37.28;19.23;;;;;;;14.96;60.00;100080.94;4322014;33;20767;-89
2022/12/26 13:08:48;;;;;;;45.50;20.95;;;;;;;14.89;60.00;100080.31;4321859;33;20072;-89
2022/12/26 13:11:29;;;;;;;45.40;22.05;;;;;;;14.88;60.00;100070.75;4321446;33;20104;-90
2022/12/26 13:14:16;;;;;;;47.28;22.13;;;;;;;14.80;60.00;100075.50;4309926;33;20115;-89
2022/12/26 13:16:51;;;;;;;35.80;19.17;;;;;;;14.80;60.00;100077.28;4315470;33;20095;-89
2022/12/26 13:19:24;;;;;;;44.03;20.58;;;;;;;14.55;59.98;100085.34;4321962;33;20157;-89
2022/12/26 13:22:22;;;;;;;;;;;;;;;;;;;;;
2022/12/26 13:24:55;;;;;;;43.80;21.77;;;;;;;14.68;59.98;100087.38;4321956;33;34661;-89
2022/12/26 13:27:24;;;;;;;44.65;22.08;;;;;;;14.45;59.97;100087.53;4309885;33;20110;-89
2022/12/26 13:29:51;;;;;;;43.30;20.95;;;;;;;14.44;59.97;100088.44;4297592;33;20099;-89
2022/12/26 13:32:20;;;;;;;45.70;22.87;;;;;;;14.17;59.95;100087.78;4312332;33;20138;-90
2022/12/26 13:34:45;;;;;;;51.83;23.95;;;;;;;14.06;59.95;100093.47;4333959;33;20139;-89
2022/12/26 13:37:32;;;;;;;47.42;21.12;;;;;;;14.06;59.95;100100.47;4321942;33;20100;-89